Malaysia Virtual Airlines Airport Information Service

Kennedy International

ICAO: KJFK Country: USA
Latitude: 40.6398 Longitude: -73.7787
Latest Arrival : AA1807 (KBOS-KJFK) Latest Departure : AA256 (KJFK-KBOS)


WX CaptureLIVE
Data provided by noaa.gov | Fetched at 19:42:00

METAR : KJFK 121851Z 33014G22KT 10SM FEW065 SCT250 20/03 A3013 RMK AO2 SLP203 T02000028

TAF : KJFK 121741Z 1218/1324 32012G18KT P6SM FEW060 SCT100 FM122300 32010KT P6SM SCT100 TEMPO 1223/1301 23005KT FM130200 33007KT P6SM FEW070 FM132000 19008KT P6SM SCT070


Runway Data for KJFK
Data provided by openaviationdata.com

Runway ID Mag Var Hdg Length Elevation Surface ILS Freq ILS Id ILS Slope
04L -14 44° 11353 ft 13 ft Asphalt 110.9 IHIQ 3
04R -14 44° 8401 ft 13 ft Asphalt 109.5 IJFK 3
13L -14 134° 9992 ft 13 ft Asphalt 111.5 ITLK 3
13R -14 134° 14564 ft 13 ft Asphalt -- -- --
22L -14 224° 8401 ft 13 ft Asphalt 110.9 IIWY 3
22R -14 224° 11353 ft 13 ft Asphalt 109.5 IJOC 3
31L -14 314° 14564 ft 13 ft Asphalt 111.35 IMOH 3
31R -14 314° 9992 ft 13 ft Asphalt 111.5 IRTH 3

Kennedy International, USA
Use only for reference purposes



Not for navigational purposes.